^^
TXWeather Station Historical Data
Daily Summary for February 26, 2022 Units:  English    Metric   Both
Daily Weekly Monthly Yearly Custom
  High: Low: Average:
Temperature: 42.0 °F 40.0 °F 40.9 °F
Dew Point: 39.0 °F 35.0 °F 37.6 °F
Humidity: 91% 81% 88%
Wind Speed: 13mph 4mph 7.8mph
Wind Gust: 14mph - -
Wind- - East
Pressure: 30.4 in 30.3 in -
Precipitation: 0.240 in    
Historical Graphs
 
 
Tabular Data for February 26, 2022
Time Temperature Dew Point Pressure Wind Wind Speed Wind Gust Humidity Rainfall Rate (Hourly) solar
00:04 41.0 °F 35.0 °F 30.4 in NE 6 mph 9 mph 81% 0.000 in 0.00 W/m2
00:09 41.0 °F 36.0 °F 30.4 in NE 4 mph 9 mph 82% 0.000 in 0.00 W/m2
00:14 41.0 °F 36.0 °F 30.4 in NE 6 mph 8 mph 82% 0.000 in 0.00 W/m2
00:19 41.0 °F 36.0 °F 30.4 in NNE 9 mph 9 mph 82% 0.000 in 0.00 W/m2
00:24 41.0 °F 36.0 °F 30.4 in NNE 11 mph 11 mph 82% 0.000 in 0.00 W/m2
00:29 41.0 °F 36.0 °F 30.4 in NE 8 mph 9 mph 82% 0.000 in 0.00 W/m2
00:34 41.0 °F 36.0 °F 30.4 in NNE 6 mph 10 mph 82% 0.000 in 0.00 W/m2
00:39 41.0 °F 35.0 °F 30.4 in NNE 6 mph 8 mph 82% 0.000 in 0.00 W/m2
00:44 41.0 °F 35.0 °F 30.4 in NE 5 mph 6 mph 82% 0.000 in 0.00 W/m2
00:49 41.0 °F 35.0 °F 30.4 in NE 4 mph 6 mph 82% 0.000 in 0.00 W/m2
00:54 41.0 °F 36.0 °F 30.4 in NNE 6 mph 6 mph 83% 0.000 in 0.00 W/m2
00:59 41.0 °F 36.0 °F 30.4 in NNE 5 mph 5 mph 83% 0.000 in 0.00 W/m2
01:04 41.0 °F 36.0 °F 30.4 in NE 6 mph 6 mph 83% 0.000 in 0.00 W/m2
01:09 41.0 °F 36.0 °F 30.4 in NNE 5 mph 5 mph 83% 0.000 in 0.00 W/m2
01:14 41.0 °F 36.0 °F 30.4 in NNE 6 mph 6 mph 83% 0.000 in 0.00 W/m2
01:19 41.0 °F 36.0 °F 30.4 in NNE 8 mph 9 mph 83% 0.000 in 0.00 W/m2
01:24 41.0 °F 36.0 °F 30.4 in NNE 8 mph 9 mph 83% 0.000 in 0.00 W/m2
01:29 41.0 °F 36.0 °F 30.4 in NNE 8 mph 8 mph 83% 0.000 in 0.00 W/m2
01:34 41.0 °F 36.0 °F 30.4 in NNE 9 mph 9 mph 83% 0.000 in 0.00 W/m2
01:39 41.0 °F 36.0 °F 30.4 in NNE 7 mph 7 mph 83% 0.000 in 0.00 W/m2
01:44 41.0 °F 36.0 °F 30.4 in NNE 9 mph 9 mph 83% 0.000 in 0.00 W/m2
01:49 41.0 °F 36.0 °F 30.4 in NNE 9 mph 9 mph 83% 0.000 in 0.00 W/m2
01:54 41.0 °F 36.0 °F 30.4 in NNE 10 mph 10 mph 83% 0.000 in 0.00 W/m2
01:59 41.0 °F 36.0 °F 30.4 in NNE 7 mph 7 mph 83% 0.000 in 0.00 W/m2
02:04 40.0 °F 36.0 °F 30.4 in NNE 10 mph 10 mph 83% 0.000 in 0.00 W/m2
02:09 41.0 °F 36.0 °F 30.4 in NNE 8 mph 9 mph 83% 0.000 in 0.00 W/m2
02:14 40.0 °F 36.0 °F 30.4 in NNE 8 mph 9 mph 83% 0.000 in 0.00 W/m2
02:19 40.0 °F 36.0 °F 30.4 in NNE 9 mph 9 mph 83% 0.000 in 0.00 W/m2
02:24 40.0 °F 36.0 °F 30.4 in NNE 8 mph 11 mph 83% 0.000 in 0.00 W/m2
02:29 40.0 °F 36.0 °F 30.4 in NNE 9 mph 9 mph 83% 0.000 in 0.00 W/m2
02:34 40.0 °F 36.0 °F 30.4 in NNE 9 mph 11 mph 83% 0.000 in 0.00 W/m2
02:39 40.0 °F 36.0 °F 30.4 in NNE 8 mph 9 mph 83% 0.000 in 0.00 W/m2
02:44 40.0 °F 36.0 °F 30.4 in NNE 6 mph 11 mph 83% 0.000 in 0.00 W/m2
02:49 40.0 °F 36.0 °F 30.4 in NNE 8 mph 9 mph 83% 0.000 in 0.00 W/m2
02:54 40.0 °F 36.0 °F 30.4 in NNE 10 mph 11 mph 83% 0.000 in 0.00 W/m2
02:59 40.0 °F 36.0 °F 30.4 in North 9 mph 10 mph 83% 0.000 in 0.00 W/m2
03:04 40.0 °F 36.0 °F 30.4 in NNE 9 mph 10 mph 84% 0.000 in 0.00 W/m2
03:09 40.0 °F 36.0 °F 30.4 in NNE 6 mph 9 mph 84% 0.000 in 0.00 W/m2
03:14 40.0 °F 36.0 °F 30.4 in NNE 8 mph 9 mph 84% 0.000 in 0.00 W/m2
03:19 40.0 °F 36.0 °F 30.4 in NNE 8 mph 9 mph 84% 0.000 in 0.00 W/m2
03:24 40.0 °F 36.0 °F 30.4 in NNE 11 mph 12 mph 84% 0.000 in 0.00 W/m2
03:29 40.0 °F 36.0 °F 30.4 in NNE 11 mph 11 mph 84% 0.000 in 0.00 W/m2
03:34 40.0 °F 36.0 °F 30.4 in NNE 10 mph 12 mph 84% 0.000 in 0.00 W/m2
03:39 40.0 °F 36.0 °F 30.4 in NNE 8 mph 10 mph 84% 0.000 in 0.00 W/m2
03:44 40.0 °F 36.0 °F 30.4 in NNE 9 mph 9 mph 84% 0.000 in 0.00 W/m2
03:49 40.0 °F 36.0 °F 30.4 in NNE 11 mph 11 mph 84% 0.000 in 0.00 W/m2
03:54 40.0 °F 36.0 °F 30.4 in NNE 7 mph 9 mph 84% 0.000 in 0.00 W/m2
03:59 40.0 °F 36.0 °F 30.4 in North 10 mph 10 mph 84% 0.000 in 0.00 W/m2
04:04 40.0 °F 36.0 °F 30.4 in NNE 8 mph 8 mph 84% 0.000 in 0.00 W/m2
04:09 40.0 °F 36.0 °F 30.4 in NNE 10 mph 11 mph 84% 0.000 in 0.00 W/m2
04:14 40.0 °F 36.0 °F 30.4 in NNE 9 mph 11 mph 84% 0.000 in 0.00 W/m2
04:19 40.0 °F 36.0 °F 30.4 in NNE 9 mph 11 mph 84% 0.000 in 0.00 W/m2
04:24 40.0 °F 36.0 °F 30.4 in NNE 12 mph 13 mph 84% 0.000 in 0.00 W/m2
04:29 40.0 °F 36.0 °F 30.4 in North 6 mph 8 mph 84% 0.000 in 0.00 W/m2
04:34 40.0 °F 36.0 °F 30.4 in North 6 mph 7 mph 84% 0.000 in 0.00 W/m2
04:39 40.0 °F 36.0 °F 30.4 in NNE 7 mph 8 mph 84% 0.000 in 0.00 W/m2
04:44 40.0 °F 36.0 °F 30.4 in NNE 9 mph 10 mph 84% 0.000 in 0.00 W/m2
04:49 40.0 °F 36.0 °F 30.4 in NNE 9 mph 10 mph 84% 0.000 in 0.00 W/m2
04:54 40.0 °F 36.0 °F 30.4 in NNE 9 mph 11 mph 84% 0.000 in 0.00 W/m2
04:59 40.0 °F 36.0 °F 30.4 in NNE 9 mph 11 mph 84% 0.000 in 0.00 W/m2
05:04 40.0 °F 36.0 °F 30.4 in NNE 9 mph 10 mph 84% 0.000 in 0.00 W/m2
05:09 40.0 °F 36.0 °F 30.4 in NNE 10 mph 11 mph 84% 0.000 in 0.00 W/m2
05:14 40.0 °F 36.0 °F 30.4 in NNE 8 mph 11 mph 84% 0.000 in 0.00 W/m2
05:19 40.0 °F 36.0 °F 30.4 in NNE 10 mph 11 mph 84% 0.000 in 0.00 W/m2
05:24 40.0 °F 36.0 °F 30.4 in NNE 8 mph 8 mph 84% 0.000 in 0.00 W/m2
05:29 40.0 °F 36.0 °F 30.4 in NNE 9 mph 9 mph 84% 0.000 in 0.00 W/m2
05:34 40.0 °F 36.0 °F 30.4 in NNE 5 mph 9 mph 84% 0.000 in 0.00 W/m2
05:39 40.0 °F 36.0 °F 30.4 in NNE 5 mph 5 mph 84% 0.000 in 0.00 W/m2
05:44 40.0 °F 36.0 °F 30.4 in NNE 6 mph 6 mph 84% 0.000 in 0.00 W/m2
05:49 41.0 °F 36.0 °F 30.4 in NNE 7 mph 8 mph 84% 0.000 in 0.00 W/m2
05:54 41.0 °F 36.0 °F 30.4 in NNE 5 mph 8 mph 84% 0.000 in 0.00 W/m2
05:59 41.0 °F 36.0 °F 30.4 in NNE 6 mph 10 mph 84% 0.000 in 0.00 W/m2
06:04 41.0 °F 36.0 °F 30.4 in North 7 mph 9 mph 85% 0.000 in 0.00 W/m2
06:09 41.0 °F 36.0 °F 30.4 in North 9 mph 9 mph 85% 0.000 in 0.00 W/m2
06:14 41.0 °F 36.0 °F 30.4 in NNE 9 mph 9 mph 85% 0.000 in 0.00 W/m2
06:19 41.0 °F 36.0 °F 30.4 in NNE 6 mph 7 mph 85% 0.000 in 0.00 W/m2
06:24 40.0 °F 36.0 °F 30.4 in North 10 mph 10 mph 85% 0.000 in 0.00 W/m2
06:29 41.0 °F 36.0 °F 30.4 in NNE 9 mph 10 mph 85% 0.000 in 0.00 W/m2
06:34 40.0 °F 36.0 °F 30.4 in NNE 10 mph 11 mph 85% 0.000 in 0.00 W/m2
06:39 40.0 °F 36.0 °F 30.4 in NNE 10 mph 11 mph 85% 0.000 in 0.00 W/m2
06:44 41.0 °F 36.0 °F 30.4 in North 12 mph 12 mph 85% 0.000 in 0.00 W/m2
06:49 40.0 °F 36.0 °F 30.4 in NNE 8 mph 12 mph 85% 0.000 in 0.00 W/m2
06:54 41.0 °F 36.0 °F 30.4 in North 8 mph 9 mph 85% 0.000 in 0.00 W/m2
06:59 41.0 °F 36.0 °F 30.4 in NNE 9 mph 11 mph 85% 0.000 in 0.00 W/m2
07:04 40.0 °F 36.0 °F 30.4 in NNE 10 mph 10 mph 85% 0.000 in 0.00 W/m2
07:09 40.0 °F 37.0 °F 30.4 in NNE 13 mph 13 mph 86% 0.000 in 0.00 W/m2
07:14 40.0 °F 37.0 °F 30.4 in NNE 10 mph 10 mph 86% 0.000 in 0.00 W/m2
07:19 40.0 °F 37.0 °F 30.4 in NNE 9 mph 9 mph 86% 0.000 in 0.00 W/m2
07:24 40.0 °F 37.0 °F 30.4 in North 10 mph 10 mph 86% 0.000 in 5.00 W/m2
07:29 40.0 °F 37.0 °F 30.4 in NNE 9 mph 10 mph 86% 0.000 in 5.00 W/m2
07:34 40.0 °F 37.0 °F 30.4 in NNE 10 mph 10 mph 86% 0.000 in 5.00 W/m2
07:39 40.0 °F 37.0 °F 30.4 in North 8 mph 10 mph 86% 0.000 in 5.00 W/m2
07:44 40.0 °F 37.0 °F 30.4 in NNE 6 mph 8 mph 87% 0.000 in 9.00 W/m2
07:49 40.0 °F 37.0 °F 30.4 in NNE 8 mph 9 mph 87% 0.010 in 14.00 W/m2
07:54 40.0 °F 37.0 °F 30.4 in NNE 6 mph 9 mph 87% 0.010 in 18.00 W/m2
07:59 40.0 °F 37.0 °F 30.4 in North 8 mph 9 mph 87% 0.010 in 18.00 W/m2
08:04 40.0 °F 37.0 °F 30.4 in North 9 mph 11 mph 87% 0.010 in 16.00 W/m2
08:09 40.0 °F 37.0 °F 30.4 in North 8 mph 9 mph 87% 0.010 in 9.00 W/m2
08:14 40.0 °F 37.0 °F 30.4 in NNE 8 mph 9 mph 87% 0.010 in 7.00 W/m2
08:19 40.0 °F 37.0 °F 30.4 in NNE 7 mph 9 mph 87% 0.010 in 9.00 W/m2
08:24 40.0 °F 37.0 °F 30.4 in NNE 8 mph 9 mph 87% 0.010 in 11.00 W/m2
08:29 40.0 °F 37.0 °F 30.4 in NNE 7 mph 7 mph 88% 0.020 in 11.00 W/m2
08:34 40.0 °F 37.0 °F 30.4 in NNE 8 mph 11 mph 88% 0.020 in 16.00 W/m2
08:39 40.0 °F 37.0 °F 30.4 in NNE 6 mph 11 mph 88% 0.020 in 28.00 W/m2
08:44 40.0 °F 37.0 °F 30.4 in NNE 7 mph 9 mph 88% 0.020 in 28.00 W/m2
08:49 41.0 °F 37.0 °F 30.4 in North 8 mph 9 mph 88% 0.030 in 35.00 W/m2
08:54 41.0 °F 37.0 °F 30.4 in North 9 mph 10 mph 88% 0.020 in 40.00 W/m2
08:59 41.0 °F 37.0 °F 30.4 in NNE 7 mph 7 mph 88% 0.020 in 40.00 W/m2
09:04 41.0 °F 37.0 °F 30.4 in North 6 mph 8 mph 88% 0.020 in 25.00 W/m2
09:09 41.0 °F 38.0 °F 30.4 in North 7 mph 7 mph 89% 0.020 in 28.00 W/m2
09:14 41.0 °F 38.0 °F 30.4 in NNE 9 mph 9 mph 89% 0.030 in 26.00 W/m2
09:19 41.0 °F 38.0 °F 30.4 in NNE 6 mph 8 mph 89% 0.030 in 35.00 W/m2
09:24 41.0 °F 38.0 °F 30.4 in NNE 8 mph 9 mph 89% 0.030 in 46.00 W/m2
09:29 41.0 °F 38.0 °F 30.4 in NNE 5 mph 5 mph 89% 0.030 in 56.00 W/m2
09:34 41.0 °F 38.0 °F 30.4 in NNE 9 mph 11 mph 89% 0.020 in 54.00 W/m2
09:39 41.0 °F 38.0 °F 30.4 in NNE 9 mph 11 mph 89% 0.020 in 33.00 W/m2
09:44 41.0 °F 38.0 °F 30.4 in North 12 mph 12 mph 89% 0.030 in 28.00 W/m2
09:49 41.0 °F 38.0 °F 30.4 in NNE 11 mph 12 mph 89% 0.030 in 25.00 W/m2
09:54 41.0 °F 38.0 °F 30.4 in NNE 13 mph 14 mph 89% 0.020 in 26.00 W/m2
09:59 41.0 °F 38.0 °F 30.4 in North 11 mph 11 mph 89% 0.020 in 28.00 W/m2
10:04 41.0 °F 38.0 °F 30.4 in NNE 10 mph 11 mph 89% 0.020 in 33.00 W/m2
10:09 41.0 °F 38.0 °F 30.4 in NNE 10 mph 11 mph 89% 0.020 in 39.00 W/m2
10:14 41.0 °F 38.0 °F 30.4 in North 9 mph 10 mph 89% 0.020 in 40.00 W/m2
10:19 41.0 °F 38.0 °F 30.4 in North 6 mph 8 mph 89% 0.020 in 28.00 W/m2
10:24 41.0 °F 38.0 °F 30.4 in NNE 6 mph 8 mph 89% 0.020 in 32.00 W/m2
10:29 41.0 °F 38.0 °F 30.4 in NNE 6 mph 8 mph 89% 0.020 in 46.00 W/m2
10:34 41.0 °F 38.0 °F 30.4 in NNE 5 mph 8 mph 89% 0.020 in 51.00 W/m2
10:39 41.0 °F 38.0 °F 30.4 in NNE 10 mph 10 mph 89% 0.020 in 54.00 W/m2
10:44 41.0 °F 38.0 °F 30.4 in NNE 8 mph 8 mph 89% 0.020 in 54.00 W/m2
10:49 41.0 °F 38.0 °F 30.4 in NNE 9 mph 11 mph 89% 0.020 in 54.00 W/m2
10:54 41.0 °F 38.0 °F 30.4 in North 6 mph 6 mph 89% 0.020 in 46.00 W/m2
10:59 41.0 °F 38.0 °F 30.4 in NNE 8 mph 8 mph 89% 0.020 in 62.00 W/m2
11:04 41.0 °F 38.0 °F 30.4 in NNE 8 mph 8 mph 89% 0.020 in 56.00 W/m2
11:09 41.0 °F 38.0 °F 30.4 in NNE 7 mph 8 mph 89% 0.020 in 49.00 W/m2
11:14 41.0 °F 39.0 °F 30.4 in NNE 9 mph 9 mph 90% 0.020 in 67.00 W/m2
11:19 41.0 °F 39.0 °F 30.4 in NNE 8 mph 11 mph 90% 0.010 in 51.00 W/m2
11:24 41.0 °F 39.0 °F 30.4 in NE 8 mph 11 mph 90% 0.010 in 46.00 W/m2
11:29 41.0 °F 39.0 °F 30.4 in NNE 8 mph 10 mph 90% 0.020 in 53.00 W/m2
11:34 41.0 °F 39.0 °F 30.4 in NNE 9 mph 9 mph 90% 0.020 in 53.00 W/m2
11:39 41.0 °F 39.0 °F 30.4 in NE 8 mph 8 mph 90% 0.020 in 46.00 W/m2
11:44 41.0 °F 39.0 °F 30.4 in NNE 9 mph 9 mph 90% 0.020 in 47.00 W/m2
11:49 41.0 °F 39.0 °F 30.4 in NNE 9 mph 11 mph 90% 0.020 in 44.00 W/m2
11:54 41.0 °F 39.0 °F 30.4 in NNE 11 mph 14 mph 90% 0.010 in 49.00 W/m2
11:59 41.0 °F 38.0 °F 30.4 in NNE 10 mph 14 mph 90% 0.010 in 56.00 W/m2
12:04 41.0 °F 38.0 °F 30.4 in NNE 9 mph 11 mph 90% 0.010 in 54.00 W/m2
12:09 41.0 °F 38.0 °F 30.4 in NE 9 mph 11 mph 90% 0.010 in 60.00 W/m2
12:14 41.0 °F 38.0 °F 30.4 in NNE 10 mph 10 mph 90% 0.020 in 62.00 W/m2
12:19 41.0 °F 38.0 °F 30.4 in NNE 8 mph 9 mph 90% 0.020 in 63.00 W/m2
12:24 41.0 °F 39.0 °F 30.4 in NE 8 mph 8 mph 90% 0.020 in 77.00 W/m2
12:29 41.0 °F 39.0 °F 30.4 in NNE 9 mph 10 mph 90% 0.020 in 86.00 W/m2
12:34 41.0 °F 39.0 °F 30.4 in NNE 9 mph 10 mph 90% 0.010 in 58.00 W/m2
12:39 41.0 °F 39.0 °F 30.4 in NE 6 mph 6 mph 90% 0.010 in 62.00 W/m2
12:44 41.0 °F 39.0 °F 30.4 in NE 8 mph 8 mph 90% 0.010 in 49.00 W/m2
12:49 41.0 °F 39.0 °F 30.4 in NNE 7 mph 8 mph 90% 0.010 in 62.00 W/m2
12:54 42.0 °F 39.0 °F 30.4 in NNE 5 mph 7 mph 90% 0.020 in 65.00 W/m2
12:59 42.0 °F 39.0 °F 30.4 in NE 9 mph 9 mph 90% 0.020 in 56.00 W/m2
13:04 41.0 °F 39.0 °F 30.4 in NNE 5 mph 6 mph 90% 0.020 in 44.00 W/m2
13:09 41.0 °F 39.0 °F 30.4 in North 9 mph 9 mph 90% 0.020 in 40.00 W/m2
13:14 41.0 °F 39.0 °F 30.4 in NNE 5 mph 9 mph 90% 0.020 in 37.00 W/m2
13:19 42.0 °F 39.0 °F 30.4 in NNE 5 mph 5 mph 90% 0.010 in 46.00 W/m2
13:24 42.0 °F 39.0 °F 30.4 in NNE 7 mph 9 mph 90% 0.010 in 53.00 W/m2
13:29 42.0 °F 39.0 °F 30.3 in NNE 8 mph 9 mph 90% 0.010 in 54.00 W/m2
13:34 41.0 °F 39.0 °F 30.3 in NNE 7 mph 8 mph 90% 0.020 in 51.00 W/m2
13:39 42.0 °F 39.0 °F 30.3 in NNE 8 mph 8 mph 90% 0.020 in 54.00 W/m2
13:44 42.0 °F 39.0 °F 30.3 in NNE 7 mph 9 mph 90% 0.020 in 76.00 W/m2
13:49 42.0 °F 39.0 °F 30.3 in North 5 mph 9 mph 90% 0.020 in 69.00 W/m2
13:54 42.0 °F 39.0 °F 30.3 in NNW 7 mph 8 mph 90% 0.020 in 54.00 W/m2
13:59 41.0 °F 39.0 °F 30.3 in North 9 mph 10 mph 90% 0.010 in 69.00 W/m2
14:04 41.0 °F 39.0 °F 30.3 in North 9 mph 11 mph 90% 0.010 in 84.00 W/m2
14:09 41.0 °F 39.0 °F 30.3 in North 6 mph 11 mph 90% 0.020 in 77.00 W/m2
14:14 41.0 °F 39.0 °F 30.3 in North 9 mph 9 mph 90% 0.020 in 63.00 W/m2
14:19 42.0 °F 39.0 °F 30.3 in NNE 8 mph 9 mph 90% 0.020 in 72.00 W/m2
14:24 42.0 °F 39.0 °F 30.3 in North 6 mph 8 mph 90% 0.020 in 84.00 W/m2
14:29 42.0 °F 39.0 °F 30.3 in NNE 5 mph 8 mph 90% 0.020 in 79.00 W/m2
14:34 42.0 °F 39.0 °F 30.3 in North 6 mph 7 mph 90% 0.020 in 83.00 W/m2
14:39 42.0 °F 39.0 °F 30.3 in North 5 mph 5 mph 90% 0.010 in 74.00 W/m2
14:44 42.0 °F 39.0 °F 30.3 in North 5 mph 5 mph 90% 0.020 in 67.00 W/m2
14:49 42.0 °F 39.0 °F 30.3 in North 9 mph 9 mph 90% 0.020 in 83.00 W/m2
14:54 42.0 °F 39.0 °F 30.3 in NNW 9 mph 9 mph 90% 0.020 in 77.00 W/m2
14:59 42.0 °F 39.0 °F 30.3 in North 7 mph 9 mph 90% 0.020 in 98.00 W/m2
15:04 42.0 °F 39.0 °F 30.3 in North 8 mph 9 mph 90% 0.020 in 98.00 W/m2
15:09 42.0 °F 39.0 °F 30.3 in North 9 mph 10 mph 90% 0.020 in 77.00 W/m2
15:14 42.0 °F 39.0 °F 30.3 in NNE 9 mph 9 mph 90% 0.010 in 83.00 W/m2
15:19 42.0 °F 39.0 °F 30.3 in North 9 mph 9 mph 90% 0.010 in 67.00 W/m2
15:24 42.0 °F 39.0 °F 30.3 in North 6 mph 8 mph 90% 0.020 in 62.00 W/m2
15:29 42.0 °F 39.0 °F 30.3 in North 8 mph 10 mph 90% 0.020 in 65.00 W/m2
15:34 42.0 °F 39.0 °F 30.3 in North 8 mph 10 mph 90% 0.020 in 58.00 W/m2
15:39 42.0 °F 39.0 °F 30.3 in North 10 mph 10 mph 90% 0.020 in 77.00 W/m2
15:44 42.0 °F 39.0 °F 30.3 in NNE 8 mph 10 mph 90% 0.020 in 76.00 W/m2
15:49 42.0 °F 39.0 °F 30.3 in NNE 6 mph 10 mph 90% 0.010 in 56.00 W/m2
15:54 42.0 °F 39.0 °F 30.3 in NNE 9 mph 10 mph 90% 0.020 in 46.00 W/m2
15:59 42.0 °F 39.0 °F 30.3 in NNE 4 mph 8 mph 90% 0.020 in 33.00 W/m2
16:04 42.0 °F 39.0 °F 30.3 in North 4 mph 5 mph 90% 0.020 in 39.00 W/m2
16:09 42.0 °F 39.0 °F 30.3 in North 8 mph 8 mph 90% 0.020 in 40.00 W/m2
16:14 42.0 °F 39.0 °F 30.3 in North 7 mph 8 mph 90% 0.020 in 46.00 W/m2
16:19 42.0 °F 39.0 °F 30.3 in North 6 mph 7 mph 90% 0.020 in 42.00 W/m2
16:24 42.0 °F 39.0 °F 30.3 in North 8 mph 8 mph 90% 0.020 in 44.00 W/m2
16:29 42.0 °F 39.0 °F 30.3 in North 6 mph 6 mph 90% 0.020 in 30.00 W/m2
16:34 42.0 °F 39.0 °F 30.3 in North 9 mph 9 mph 90% 0.020 in 30.00 W/m2
16:39 42.0 °F 39.0 °F 30.3 in NNW 8 mph 9 mph 90% 0.020 in 37.00 W/m2
16:44 42.0 °F 39.0 °F 30.3 in NNW 8 mph 9 mph 90% 0.020 in 32.00 W/m2
16:49 41.0 °F 39.0 °F 30.3 in North 8 mph 8 mph 90% 0.020 in 25.00 W/m2
16:54 41.0 °F 39.0 °F 30.3 in North 8 mph 8 mph 90% 0.020 in 32.00 W/m2
16:59 41.0 °F 39.0 °F 30.3 in North 8 mph 9 mph 90% 0.010 in 32.00 W/m2
17:04 41.0 °F 39.0 °F 30.3 in North 8 mph 8 mph 90% 0.020 in 28.00 W/m2
17:09 41.0 °F 39.0 °F 30.3 in North 8 mph 8 mph 90% 0.020 in 19.00 W/m2
17:14 41.0 °F 39.0 °F 30.3 in North 8 mph 8 mph 90% 0.020 in 16.00 W/m2
17:19 41.0 °F 39.0 °F 30.3 in North 7 mph 7 mph 90% 0.020 in 18.00 W/m2
17:24 41.0 °F 39.0 °F 30.3 in North 6 mph 8 mph 90% 0.020 in 18.00 W/m2
17:29 41.0 °F 39.0 °F 30.3 in NNE 5 mph 6 mph 90% 0.020 in 14.00 W/m2
17:34 41.0 °F 39.0 °F 30.3 in North 4 mph 4 mph 91% 0.010 in 14.00 W/m2
17:39 41.0 °F 39.0 °F 30.3 in NNE 7 mph 7 mph 91% 0.010 in 14.00 W/m2
17:44 41.0 °F 39.0 °F 30.3 in North 5 mph 5 mph 90% 0.020 in 9.00 W/m2
17:49 41.0 °F 39.0 °F 30.3 in NNE 4 mph 4 mph 91% 0.020 in 7.00 W/m2
17:54 41.0 °F 39.0 °F 30.3 in North 8 mph 9 mph 91% 0.020 in 5.00 W/m2
17:59 41.0 °F 39.0 °F 30.3 in North 8 mph 9 mph 91% 0.020 in 5.00 W/m2
18:04 41.0 °F 39.0 °F 30.3 in NNE 5 mph 8 mph 90% 0.020 in 0.00 W/m2
18:09 41.0 °F 39.0 °F 30.3 in North 5 mph 8 mph 90% 0.010 in 0.00 W/m2
18:14 41.0 °F 39.0 °F 30.3 in North 6 mph 8 mph 90% 0.010 in 0.00 W/m2
18:19 41.0 °F 39.0 °F 30.3 in NNE 9 mph 10 mph 90% 0.010 in 0.00 W/m2
18:24 41.0 °F 39.0 °F 30.3 in North 6 mph 10 mph 90% 0.020 in 0.00 W/m2
18:29 41.0 °F 38.0 °F 30.3 in NNE 7 mph 9 mph 90% 0.020 in 0.00 W/m2
18:34 41.0 °F 38.0 °F 30.3 in North 5 mph 9 mph 90% 0.020 in 0.00 W/m2
18:39 41.0 °F 38.0 °F 30.3 in NNE 9 mph 9 mph 90% 0.020 in 0.00 W/m2
18:44 41.0 °F 38.0 °F 30.3 in NNE 7 mph 7 mph 90% 0.020 in 0.00 W/m2
18:49 41.0 °F 38.0 °F 30.3 in North 5 mph 9 mph 90% 0.010 in 0.00 W/m2
18:54 41.0 °F 38.0 °F 30.3 in NNE 5 mph 6 mph 90% 0.010 in 0.00 W/m2
18:59 41.0 °F 38.0 °F 30.3 in NNE 4 mph 5 mph 90% 0.010 in 0.00 W/m2
19:04 41.0 °F 38.0 °F 30.3 in NNW 5 mph 5 mph 90% 0.010 in 0.00 W/m2
19:09 41.0 °F 38.0 °F 30.3 in North 6 mph 8 mph 90% 0.020 in 0.00 W/m2
19:14 41.0 °F 38.0 °F 30.3 in NNE 4 mph 5 mph 90% 0.020 in 0.00 W/m2
19:19 41.0 °F 38.0 °F 30.3 in North 4 mph 5 mph 90% 0.020 in 0.00 W/m2
19:24 41.0 °F 38.0 °F 30.3 in NNE 4 mph 5 mph 90% 0.020 in 0.00 W/m2
19:29 41.0 °F 38.0 °F 30.3 in NNE 7 mph 7 mph 90% 0.010 in 0.00 W/m2
19:34 41.0 °F 38.0 °F 30.3 in North 5 mph 6 mph 90% 0.010 in 0.00 W/m2
19:39 41.0 °F 38.0 °F 30.4 in North 5 mph 5 mph 90% 0.010 in 0.00 W/m2
19:44 41.0 °F 38.0 °F 30.4 in North 6 mph 9 mph 90% 0.010 in 0.00 W/m2
19:49 41.0 °F 38.0 °F 30.4 in North 7 mph 9 mph 90% 0.010 in 0.00 W/m2
19:54 41.0 °F 38.0 °F 30.4 in North 10 mph 10 mph 90% 0.020 in 0.00 W/m2
19:59 41.0 °F 39.0 °F 30.4 in NNE 8 mph 10 mph 91% 0.020 in 0.00 W/m2
20:04 41.0 °F 39.0 °F 30.4 in North 9 mph 9 mph 91% 0.020 in 0.00 W/m2
20:09 41.0 °F 39.0 °F 30.4 in North 6 mph 8 mph 91% 0.020 in 0.00 W/m2
20:14 41.0 °F 39.0 °F 30.4 in North 8 mph 9 mph 91% 0.010 in 0.00 W/m2
20:19 41.0 °F 39.0 °F 30.4 in North 7 mph 7 mph 91% 0.010 in 0.00 W/m2
20:24 41.0 °F 38.0 °F 30.4 in North 8 mph 8 mph 91% 0.010 in 0.00 W/m2
20:29 41.0 °F 38.0 °F 30.4 in North 10 mph 10 mph 91% 0.010 in 0.00 W/m2
20:34 41.0 °F 38.0 °F 30.4 in North 8 mph 8 mph 91% 0.010 in 0.00 W/m2
20:39 41.0 °F 38.0 °F 30.4 in North 8 mph 8 mph 90% 0.020 in 0.00 W/m2
20:44 41.0 °F 38.0 °F 30.4 in North 6 mph 7 mph 90% 0.020 in 0.00 W/m2
20:49 41.0 °F 38.0 °F 30.4 in NNE 8 mph 8 mph 91% 0.020 in 0.00 W/m2
20:54 41.0 °F 38.0 °F 30.4 in North 8 mph 9 mph 91% 0.020 in 0.00 W/m2
20:59 41.0 °F 38.0 °F 30.4 in North 9 mph 10 mph 91% 0.010 in 0.00 W/m2
21:04 41.0 °F 38.0 °F 30.4 in North 8 mph 10 mph 91% 0.010 in 0.00 W/m2
21:09 41.0 °F 38.0 °F 30.4 in North 5 mph 8 mph 91% 0.010 in 0.00 W/m2
21:14 41.0 °F 38.0 °F 30.4 in North 10 mph 10 mph 91% 0.010 in 0.00 W/m2
21:19 41.0 °F 38.0 °F 30.4 in North 6 mph 6 mph 91% 0.010 in 0.00 W/m2
21:24 41.0 °F 38.0 °F 30.4 in North 9 mph 9 mph 91% 0.010 in 0.00 W/m2
21:29 41.0 °F 38.0 °F 30.4 in North 8 mph 11 mph 91% 0.010 in 0.00 W/m2
21:34 41.0 °F 38.0 °F 30.4 in North 9 mph 11 mph 91% 0.020 in 0.00 W/m2
21:39 41.0 °F 38.0 °F 30.4 in North 9 mph 11 mph 90% 0.020 in 0.00 W/m2
21:44 41.0 °F 38.0 °F 30.4 in North 9 mph 11 mph 90% 0.010 in 0.00 W/m2
21:49 41.0 °F 38.0 °F 30.4 in North 9 mph 10 mph 90% 0.010 in 0.00 W/m2
21:54 41.0 °F 38.0 °F 30.4 in North 9 mph 9 mph 90% 0.010 in 0.00 W/m2
21:59 41.0 °F 38.0 °F 30.4 in NNE 10 mph 11 mph 90% 0.010 in 0.00 W/m2
22:04 41.0 °F 38.0 °F 30.4 in North 9 mph 9 mph 90% 0.010 in 0.00 W/m2
22:09 41.0 °F 38.0 °F 30.4 in North 11 mph 12 mph 90% 0.010 in 0.00 W/m2
22:14 41.0 °F 38.0 °F 30.4 in NNW 10 mph 10 mph 90% 0.010 in 0.00 W/m2
22:19 41.0 °F 38.0 °F 30.4 in North 9 mph 10 mph 90% 0.010 in 0.00 W/m2
22:24 41.0 °F 38.0 °F 30.4 in North 9 mph 10 mph 90% 0.010 in 0.00 W/m2
22:29 41.0 °F 38.0 °F 30.4 in NNW 9 mph 10 mph 90% 0.010 in 0.00 W/m2
22:34 41.0 °F 38.0 °F 30.4 in NNW 9 mph 10 mph 90% 0.010 in 0.00 W/m2
22:39 41.0 °F 38.0 °F 30.4 in North 9 mph 9 mph 90% 0.000 in 0.00 W/m2
22:44 41.0 °F 38.0 °F 30.4 in North 9 mph 10 mph 91% 0.000 in 0.00 W/m2
22:49 41.0 °F 38.0 °F 30.4 in North 9 mph 10 mph 90% 0.010 in 0.00 W/m2
22:54 41.0 °F 38.0 °F 30.4 in North 8 mph 10 mph 91% 0.010 in 0.00 W/m2
22:59 41.0 °F 38.0 °F 30.4 in North 6 mph 8 mph 91% 0.010 in 0.00 W/m2
23:04 41.0 °F 38.0 °F 30.4 in North 6 mph 6 mph 91% 0.010 in 0.00 W/m2
23:09 41.0 °F 38.0 °F 30.4 in North 6 mph 6 mph 91% 0.010 in 0.00 W/m2
23:14 41.0 °F 38.0 °F 30.4 in North 9 mph 9 mph 91% 0.010 in 0.00 W/m2
23:19 41.0 °F 38.0 °F 30.4 in North 8 mph 8 mph 91% 0.010 in 0.00 W/m2
23:24 41.0 °F 38.0 °F 30.4 in North 8 mph 9 mph 91% 0.010 in 0.00 W/m2
23:29 41.0 °F 38.0 °F 30.4 in NNW 8 mph 10 mph 91% 0.010 in 0.00 W/m2
23:34 41.0 °F 38.0 °F 30.4 in NNW 9 mph 10 mph 91% 0.010 in 0.00 W/m2
23:39 41.0 °F 38.0 °F 30.4 in North 11 mph 12 mph 91% 0.010 in 0.00 W/m2
23:44 41.0 °F 38.0 °F 30.4 in North 9 mph 10 mph 91% 0.010 in 0.00 W/m2
23:49 41.0 °F 38.0 °F 30.4 in NNW 8 mph 10 mph 91% 0.010 in 0.00 W/m2
23:54 41.0 °F 38.0 °F 30.4 in North 10 mph 10 mph 91% 0.000 in 0.00 W/m2
23:59 41.0 °F 38.0 °F 30.4 in NNW 11 mph 12 mph 91% 0.000 in 0.00 W/m2
Villages of Bridgestone, Spring, TX USA
Compliments of Weather Underground - 4 mb